sensor_id;sensor_type;location;lat;lon;timestamp;pressure;altitude;pressure_sealevel;temperature;humidity
7906;BME280;13291;40.472;-3.878;2023-05-11T00:01:31;53012.00;;;-139.96;31.97
7906;BME280;13291;40.472;-3.878;2023-05-11T00:03:58;53030.00;;;-139.96;31.78
7906;BME280;13291;40.472;-3.878;2023-05-11T00:06:25;53030.00;;;-139.96;32.10
7906;BME280;13291;40.472;-3.878;2023-05-11T00:08:52;53034.00;;;-139.96;31.99
7906;BME280;13291;40.472;-3.878;2023-05-11T00:11:20;53003.97;;;-139.96;32.17
7906;BME280;13291;40.472;-3.878;2023-05-11T00:13:48;53036.00;;;-139.96;32.42
7906;BME280;13291;40.472;-3.878;2023-05-11T00:16:15;53032.00;;;-139.96;32.21
7906;BME280;13291;40.472;-3.878;2023-05-11T00:18:42;53007.97;;;-139.96;32.48
7906;BME280;13291;40.472;-3.878;2023-05-11T00:21:09;53036.00;;;-139.96;32.26
7906;BME280;13291;40.472;-3.878;2023-05-11T00:23:35;53024.00;;;-139.96;32.55
7906;BME280;13291;40.472;-3.878;2023-05-11T00:26:02;53016.00;;;-139.96;32.82
7906;BME280;13291;40.472;-3.878;2023-05-11T00:28:31;53064.00;;;-139.96;32.99
7906;BME280;13291;40.472;-3.878;2023-05-11T00:30:58;53054.00;;;-139.96;33.13
7906;BME280;13291;40.472;-3.878;2023-05-11T00:33:25;53038.00;;;-139.96;33.13
7906;BME280;13291;40.472;-3.878;2023-05-11T00:35:52;53030.00;;;-139.96;33.22
7906;BME280;13291;40.472;-3.878;2023-05-11T00:38:19;53001.97;;;-139.96;33.20
7906;BME280;13291;40.472;-3.878;2023-05-11T00:40:47;53026.00;;;-139.96;33.25
7906;BME280;13291;40.472;-3.878;2023-05-11T00:43:15;53009.97;;;-139.96;33.24
7906;BME280;13291;40.472;-3.878;2023-05-11T00:45:44;53042.00;;;-139.96;33.25
7906;BME280;13291;40.472;-3.878;2023-05-11T00:48:13;53052.00;;;-139.96;33.62
7906;BME280;13291;40.472;-3.878;2023-05-11T00:50:40;53036.00;;;-139.96;33.79
7906;BME280;13291;40.472;-3.878;2023-05-11T00:53:06;53056.00;;;-139.96;33.68
7906;BME280;13291;40.472;-3.878;2023-05-11T00:55:34;53064.00;;;-139.96;33.64
7906;BME280;13291;40.472;-3.878;2023-05-11T00:58:01;53009.97;;;-139.96;33.54
7906;BME280;13291;40.472;-3.878;2023-05-11T01:00:30;52999.97;;;-139.96;33.62
7906;BME280;13291;40.472;-3.878;2023-05-11T01:02:58;53016.00;;;-139.96;33.90
7906;BME280;13291;40.472;-3.878;2023-05-11T01:05:33;53072.00;;;-139.96;33.85
7906;BME280;13291;40.472;-3.878;2023-05-11T01:08:08;53046.00;;;-139.96;33.61
7906;BME280;13291;40.472;-3.878;2023-05-11T01:10:41;53058.00;;;-139.96;33.86
7906;BME280;13291;40.472;-3.878;2023-05-11T01:13:16;53070.00;;;-139.96;34.05
7906;BME280;13291;40.472;-3.878;2023-05-11T01:15:47;53086.00;;;-139.96;34.16
7906;BME280;13291;40.472;-3.878;2023-05-11T01:18:20;53050.00;;;-139.96;33.89
7906;BME280;13291;40.472;-3.878;2023-05-11T01:20:51;53050.00;;;-139.96;34.22
7906;BME280;13291;40.472;-3.878;2023-05-11T01:23:42;53042.00;;;-139.96;34.04
7906;BME280;13291;40.472;-3.878;2023-05-11T01:26:32;53060.00;;;-139.96;34.30
7906;BME280;13291;40.472;-3.878;2023-05-11T01:29:40;53032.00;;;-139.96;34.42
7906;BME280;13291;40.472;-3.878;2023-05-11T01:32:16;53064.00;;;-139.96;34.39
7906;BME280;13291;40.472;-3.878;2023-05-11T01:34:45;53072.00;;;-139.96;34.43
7906;BME280;13291;40.472;-3.878;2023-05-11T01:37:17;53076.00;;;-139.96;34.74
7906;BME280;13291;40.472;-3.878;2023-05-11T01:39:51;53066.00;;;-139.96;34.84
7906;BME280;13291;40.472;-3.878;2023-05-11T01:42:27;53054.00;;;-139.96;34.74
7906;BME280;13291;40.472;-3.878;2023-05-11T01:44:56;53070.00;;;-139.96;34.83
7906;BME280;13291;40.472;-3.878;2023-05-11T01:47:27;53090.00;;;-139.96;34.74
7906;BME280;13291;40.472;-3.878;2023-05-11T01:49:56;53072.00;;;-139.96;34.91
7906;BME280;13291;40.472;-3.878;2023-05-11T01:52:25;53042.00;;;-139.96;34.89
7906;BME280;13291;40.472;-3.878;2023-05-11T01:54:54;53058.00;;;-139.96;34.96
7906;BME280;13291;40.472;-3.878;2023-05-11T01:57:22;53088.00;;;-139.96;35.08
7906;BME280;13291;40.472;-3.878;2023-05-11T01:59:51;53090.00;;;-139.96;34.98
7906;BME280;13291;40.472;-3.878;2023-05-11T02:02:19;53070.00;;;-139.96;35.15
7906;BME280;13291;40.472;-3.878;2023-05-11T02:04:48;53100.00;;;-139.96;35.24
7906;BME280;13291;40.472;-3.878;2023-05-11T02:07:16;53058.00;;;-139.96;35.23
7906;BME280;13291;40.472;-3.878;2023-05-11T02:09:45;53056.00;;;-139.96;35.25
7906;BME280;13291;40.472;-3.878;2023-05-11T02:12:17;53092.00;;;-139.96;35.65
7906;BME280;13291;40.472;-3.878;2023-05-11T02:14:45;53064.00;;;-139.96;35.37
7906;BME280;13291;40.472;-3.878;2023-05-11T02:17:14;53078.00;;;-139.96;35.60
7906;BME280;13291;40.472;-3.878;2023-05-11T02:19:43;53106.00;;;-139.96;35.49
7906;BME280;13291;40.472;-3.878;2023-05-11T02:22:12;53076.00;;;-139.96;35.70
7906;BME280;13291;40.472;-3.878;2023-05-11T02:24:40;53076.00;;;-139.96;35.50
7906;BME280;13291;40.472;-3.878;2023-05-11T02:27:08;53058.00;;;-139.96;35.65
7906;BME280;13291;40.472;-3.878;2023-05-11T02:29:35;53088.00;;;-139.96;35.59
7906;BME280;13291;40.472;-3.878;2023-05-11T02:32:05;53066.00;;;-139.96;35.69
7906;BME280;13291;40.472;-3.878;2023-05-11T02:34:38;53072.00;;;-139.96;35.73
7906;BME280;13291;40.472;-3.878;2023-05-11T02:37:12;53100.00;;;-139.96;35.72
7906;BME280;13291;40.472;-3.878;2023-05-11T02:39:45;53064.00;;;-139.96;36.11
7906;BME280;13291;40.472;-3.878;2023-05-11T02:42:17;53066.00;;;-139.96;36.14
7906;BME280;13291;40.472;-3.878;2023-05-11T02:44:52;53066.00;;;-139.96;36.04
7906;BME280;13291;40.472;-3.878;2023-05-11T02:47:21;53088.00;;;-139.96;35.94
7906;BME280;13291;40.472;-3.878;2023-05-11T02:49:54;53052.00;;;-139.96;35.98
7906;BME280;13291;40.472;-3.878;2023-05-11T02:52:24;53094.00;;;-139.96;36.03
7906;BME280;13291;40.472;-3.878;2023-05-11T02:54:55;53078.00;;;-139.96;35.67
7906;BME280;13291;40.472;-3.878;2023-05-11T02:57:25;53042.00;;;-139.96;35.89
7906;BME280;13291;40.472;-3.878;2023-05-11T02:59:53;53090.00;;;-139.96;36.00
7906;BME280;13291;40.472;-3.878;2023-05-11T03:02:20;53042.00;;;-139.96;36.12
7906;BME280;13291;40.472;-3.878;2023-05-11T03:04:47;53056.00;;;-139.96;36.13
7906;BME280;13291;40.472;-3.878;2023-05-11T03:07:14;53050.00;;;-139.96;36.30
7906;BME280;13291;40.472;-3.878;2023-05-11T03:09:41;53100.00;;;-139.96;36.44
7906;BME280;13291;40.472;-3.878;2023-05-11T03:12:10;53076.00;;;-139.96;36.26
7906;BME280;13291;40.472;-3.878;2023-05-11T03:14:39;53076.00;;;-139.96;36.71
7906;BME280;13291;40.472;-3.878;2023-05-11T03:17:06;53080.00;;;-139.96;36.85
7906;BME280;13291;40.472;-3.878;2023-05-11T03:19:34;53086.00;;;-139.96;36.79
7906;BME280;13291;40.472;-3.878;2023-05-11T03:22:01;53054.00;;;-139.96;37.00
7906;BME280;13291;40.472;-3.878;2023-05-11T03:24:30;53050.00;;;-139.96;36.89
7906;BME280;13291;40.472;-3.878;2023-05-11T03:26:58;53072.00;;;-139.96;36.52
7906;BME280;13291;40.472;-3.878;2023-05-11T03:29:30;53116.00;;;-139.96;36.68
7906;BME280;13291;40.472;-3.878;2023-05-11T03:32:03;53050.00;;;-139.96;36.42
7906;BME280;13291;40.472;-3.878;2023-05-11T03:34:30;53062.00;;;-139.96;36.36
7906;BME280;13291;40.472;-3.878;2023-05-11T03:36:58;53066.00;;;-139.96;36.76
7906;BME280;13291;40.472;-3.878;2023-05-11T03:39:28;53090.00;;;-139.96;36.57
7906;BME280;13291;40.472;-3.878;2023-05-11T03:41:58;53114.00;;;-139.96;36.82
7906;BME280;13291;40.472;-3.878;2023-05-11T03:44:27;53078.00;;;-139.96;36.97
7906;BME280;13291;40.472;-3.878;2023-05-11T03:46:58;53064.00;;;-139.96;37.07
7906;BME280;13291;40.472;-3.878;2023-05-11T03:49:26;53074.00;;;-139.96;37.21
7906;BME280;13291;40.472;-3.878;2023-05-11T03:51:55;53064.00;;;-139.96;37.11
7906;BME280;13291;40.472;-3.878;2023-05-11T03:54:22;53076.00;;;-139.96;37.06
7906;BME280;13291;40.472;-3.878;2023-05-11T03:56:50;53072.00;;;-139.96;37.56
7906;BME280;13291;40.472;-3.878;2023-05-11T03:59:17;53102.00;;;-139.96;37.70
7906;BME280;13291;40.472;-3.878;2023-05-11T04:01:45;53094.00;;;-139.96;37.72
7906;BME280;13291;40.472;-3.878;2023-05-11T04:04:13;53090.00;;;-139.96;37.57
7906;BME280;13291;40.472;-3.878;2023-05-11T04:06:41;53066.00;;;-139.96;37.39
7906;BME280;13291;40.472;-3.878;2023-05-11T04:09:08;53078.00;;;-139.96;37.08
7906;BME280;13291;40.472;-3.878;2023-05-11T04:11:35;53114.00;;;-139.96;37.11
7906;BME280;13291;40.472;-3.878;2023-05-11T04:14:02;53138.00;;;-139.96;37.43
7906;BME280;13291;40.472;-3.878;2023-05-11T04:16:30;53094.00;;;-139.96;37.33
7906;BME280;13291;40.472;-3.878;2023-05-11T04:18:57;53080.00;;;-139.96;37.59
7906;BME280;13291;40.472;-3.878;2023-05-11T04:21:25;53082.00;;;-139.96;37.66
7906;BME280;13291;40.472;-3.878;2023-05-11T04:23:52;53058.00;;;-139.96;37.68
7906;BME280;13291;40.472;-3.878;2023-05-11T04:26:19;53076.00;;;-139.96;37.71
7906;BME280;13291;40.472;-3.878;2023-05-11T04:28:46;53082.00;;;-139.96;37.53
7906;BME280;13291;40.472;-3.878;2023-05-11T04:31:13;53090.00;;;-139.96;37.61
7906;BME280;13291;40.472;-3.878;2023-05-11T04:33:40;53092.00;;;-139.96;37.86
7906;BME280;13291;40.472;-3.878;2023-05-11T04:36:07;53096.00;;;-139.96;37.61
7906;BME280;13291;40.472;-3.878;2023-05-11T04:38:36;53082.00;;;-139.96;37.73
7906;BME280;13291;40.472;-3.878;2023-05-11T04:41:03;53096.00;;;-139.96;37.61
7906;BME280;13291;40.472;-3.878;2023-05-11T04:43:30;53102.00;;;-139.96;37.69
7906;BME280;13291;40.472;-3.878;2023-05-11T04:45:57;53094.00;;;-139.96;37.76
7906;BME280;13291;40.472;-3.878;2023-05-11T04:48:24;53082.00;;;-139.96;37.39
7906;BME280;13291;40.472;-3.878;2023-05-11T04:50:52;53090.00;;;-139.96;37.78
7906;BME280;13291;40.472;-3.878;2023-05-11T04:53:19;53086.00;;;-139.96;38.00
7906;BME280;13291;40.472;-3.878;2023-05-11T04:55:47;53086.00;;;-139.96;37.56
7906;BME280;13291;40.472;-3.878;2023-05-11T04:58:14;53110.00;;;-139.96;37.85
7906;BME280;13291;40.472;-3.878;2023-05-11T05:00:41;53102.00;;;-139.96;38.09
7906;BME280;13291;40.472;-3.878;2023-05-11T05:03:08;53074.00;;;-139.96;38.00
7906;BME280;13291;40.472;-3.878;2023-05-11T05:05:35;53076.00;;;-139.96;38.21
7906;BME280;13291;40.472;-3.878;2023-05-11T05:08:02;53072.00;;;-139.96;38.00
7906;BME280;13291;40.472;-3.878;2023-05-11T05:10:29;53074.00;;;-139.96;38.30
7906;BME280;13291;40.472;-3.878;2023-05-11T05:12:58;53092.00;;;-139.96;38.00
7906;BME280;13291;40.472;-3.878;2023-05-11T05:15:25;53098.00;;;-139.96;38.08
7906;BME280;13291;40.472;-3.878;2023-05-11T05:17:52;53086.00;;;-139.96;38.23
7906;BME280;13291;40.472;-3.878;2023-05-11T05:20:19;53084.00;;;-139.96;38.04
7906;BME280;13291;40.472;-3.878;2023-05-11T05:22:45;53124.00;;;-139.96;38.28
7906;BME280;13291;40.472;-3.878;2023-05-11T05:25:12;53100.00;;;-139.96;38.02
7906;BME280;13291;40.472;-3.878;2023-05-11T05:27:39;53098.00;;;-139.96;38.12
7906;BME280;13291;40.472;-3.878;2023-05-11T05:30:08;53090.00;;;-139.96;38.19
7906;BME280;13291;40.472;-3.878;2023-05-11T05:32:35;53058.00;;;-139.96;38.14
7906;BME280;13291;40.472;-3.878;2023-05-11T05:35:02;53098.00;;;-139.96;38.25
7906;BME280;13291;40.472;-3.878;2023-05-11T05:37:29;53088.00;;;-139.96;37.86
7906;BME280;13291;40.472;-3.878;2023-05-11T05:39:56;53062.00;;;-139.96;38.10
7906;BME280;13291;40.472;-3.878;2023-05-11T05:42:23;53078.00;;;-139.96;38.11
7906;BME280;13291;40.472;-3.878;2023-05-11T05:44:50;53102.00;;;-139.96;37.63
7906;BME280;13291;40.472;-3.878;2023-05-11T05:47:18;53068.00;;;-139.96;37.95
7906;BME280;13291;40.472;-3.878;2023-05-11T05:49:45;53080.00;;;-139.96;37.61
7906;BME280;13291;40.472;-3.878;2023-05-11T05:52:12;53066.00;;;-139.96;37.49
7906;BME280;13291;40.472;-3.878;2023-05-11T05:54:39;53076.00;;;-139.96;37.36
7906;BME280;13291;40.472;-3.878;2023-05-11T05:57:06;53042.00;;;-139.96;37.59
7906;BME280;13291;40.472;-3.878;2023-05-11T05:59:33;53064.00;;;-139.96;37.49
7906;BME280;13291;40.472;-3.878;2023-05-11T06:02:00;53078.00;;;-139.96;37.67
7906;BME280;13291;40.472;-3.878;2023-05-11T06:04:28;53088.00;;;-139.96;37.63
7906;BME280;13291;40.472;-3.878;2023-05-11T06:06:56;53072.00;;;-139.96;37.68
7906;BME280;13291;40.472;-3.878;2023-05-11T06:09:24;53090.00;;;-139.96;37.78
7906;BME280;13291;40.472;-3.878;2023-05-11T06:11:51;53078.00;;;-139.96;37.68
7906;BME280;13291;40.472;-3.878;2023-05-11T06:14:19;53056.00;;;-139.96;37.91
7906;BME280;13291;40.472;-3.878;2023-05-11T06:16:46;53058.00;;;-139.96;37.75
7906;BME280;13291;40.472;-3.878;2023-05-11T06:19:13;53074.00;;;-139.96;37.86
7906;BME280;13291;40.472;-3.878;2023-05-11T06:21:42;53082.00;;;-139.96;37.59
7906;BME280;13291;40.472;-3.878;2023-05-11T06:24:10;53082.00;;;-139.96;37.46
7906;BME280;13291;40.472;-3.878;2023-05-11T06:26:37;53082.00;;;-139.96;37.47
7906;BME280;13291;40.472;-3.878;2023-05-11T06:29:05;53064.00;;;-139.96;37.24
7906;BME280;13291;40.472;-3.878;2023-05-11T06:31:32;53066.00;;;-139.96;37.49
7906;BME280;13291;40.472;-3.878;2023-05-11T06:33:59;53038.00;;;-139.96;37.41
7906;BME280;13291;40.472;-3.878;2023-05-11T06:36:26;53050.00;;;-139.96;37.25
7906;BME280;13291;40.472;-3.878;2023-05-11T06:38:54;53068.00;;;-139.96;37.15
7906;BME280;13291;40.472;-3.878;2023-05-11T06:41:21;53090.00;;;-139.96;37.11
7906;BME280;13291;40.472;-3.878;2023-05-11T06:43:49;53084.00;;;-139.96;37.23
7906;BME280;13291;40.472;-3.878;2023-05-11T06:46:15;53068.00;;;-139.96;37.22
7906;BME280;13291;40.472;-3.878;2023-05-11T06:48:42;53070.00;;;-139.96;37.37
7906;BME280;13291;40.472;-3.878;2023-05-11T06:51:09;53058.00;;;-139.96;37.35
7906;BME280;13291;40.472;-3.878;2023-05-11T06:53:36;53082.00;;;-139.96;37.25
7906;BME280;13291;40.472;-3.878;2023-05-11T06:56:05;53042.00;;;-139.96;37.13
7906;BME280;13291;40.472;-3.878;2023-05-11T06:58:32;53062.00;;;-139.96;37.32
7906;BME280;13291;40.472;-3.878;2023-05-11T07:00:59;53096.00;;;-139.96;36.73
7906;BME280;13291;40.472;-3.878;2023-05-11T07:03:29;53086.00;;;-139.96;37.00
7906;BME280;13291;40.472;-3.878;2023-05-11T07:05:56;53066.00;;;-139.96;36.78
7906;BME280;13291;40.472;-3.878;2023-05-11T07:08:23;53066.00;;;-139.96;36.63
7906;BME280;13291;40.472;-3.878;2023-05-11T07:10:50;53074.00;;;-139.96;36.51
7906;BME280;13291;40.472;-3.878;2023-05-11T07:13:19;53082.00;;;-139.96;36.30
7906;BME280;13291;40.472;-3.878;2023-05-11T07:15:46;53050.00;;;-139.96;36.46
7906;BME280;13291;40.472;-3.878;2023-05-11T07:18:14;53106.00;;;-139.96;36.26
7906;BME280;13291;40.472;-3.878;2023-05-11T07:20:41;53054.00;;;-139.96;36.32
7906;BME280;13291;40.472;-3.878;2023-05-11T07:23:09;53018.00;;;-139.96;35.94
7906;BME280;13291;40.472;-3.878;2023-05-11T07:25:36;53034.00;;;-139.96;36.24
7906;BME280;13291;40.472;-3.878;2023-05-11T07:28:03;53066.00;;;-139.96;36.18
7906;BME280;13291;40.472;-3.878;2023-05-11T07:30:31;53062.00;;;-139.96;36.48
7906;BME280;13291;40.472;-3.878;2023-05-11T07:33:00;53056.00;;;-139.96;36.64
7906;BME280;13291;40.472;-3.878;2023-05-11T07:35:27;53082.00;;;-139.96;36.40
7906;BME280;13291;40.472;-3.878;2023-05-11T07:37:54;53058.00;;;-139.96;36.35
7906;BME280;13291;40.472;-3.878;2023-05-11T07:40:21;53056.00;;;-139.96;36.63
7906;BME280;13291;40.472;-3.878;2023-05-11T07:42:48;53058.00;;;-139.96;36.65
7906;BME280;13291;40.472;-3.878;2023-05-11T07:45:15;53074.00;;;-139.96;36.39
7906;BME280;13291;40.472;-3.878;2023-05-11T07:47:43;53068.00;;;-139.96;36.77
7906;BME280;13291;40.472;-3.878;2023-05-11T07:50:10;53068.00;;;-139.96;36.89
7906;BME280;13291;40.472;-3.878;2023-05-11T07:52:37;53064.00;;;-139.96;36.21
7906;BME280;13291;40.472;-3.878;2023-05-11T07:55:05;53042.00;;;-139.96;36.39
7906;BME280;13291;40.472;-3.878;2023-05-11T07:57:32;53046.00;;;-139.96;36.46
7906;BME280;13291;40.472;-3.878;2023-05-11T07:59:59;53070.00;;;-139.96;36.33
7906;BME280;13291;40.472;-3.878;2023-05-11T08:02:26;53062.00;;;-139.96;36.43
7906;BME280;13291;40.472;-3.878;2023-05-11T08:04:54;53050.00;;;-139.96;36.27
7906;BME280;13291;40.472;-3.878;2023-05-11T08:07:21;53046.00;;;-139.96;36.17
7906;BME280;13291;40.472;-3.878;2023-05-11T08:09:48;53048.00;;;-139.96;36.34
7906;BME280;13291;40.472;-3.878;2023-05-11T08:12:15;53005.97;;;-139.96;36.17
7906;BME280;13291;40.472;-3.878;2023-05-11T08:14:42;53038.00;;;-139.96;35.69
7906;BME280;13291;40.472;-3.878;2023-05-11T08:17:09;53052.00;;;-139.96;35.99
7906;BME280;13291;40.472;-3.878;2023-05-11T08:19:36;53058.00;;;-139.96;35.99
7906;BME280;13291;40.472;-3.878;2023-05-11T08:22:04;53074.00;;;-139.96;35.84
7906;BME280;13291;40.472;-3.878;2023-05-11T08:24:32;53090.00;;;-139.96;35.58
7906;BME280;13291;40.472;-3.878;2023-05-11T08:26:58;53060.00;;;-139.96;35.76
7906;BME280;13291;40.472;-3.878;2023-05-11T08:29:25;53054.00;;;-139.96;36.16
7906;BME280;13291;40.472;-3.878;2023-05-11T08:31:52;53100.00;;;-139.96;35.99
7906;BME280;13291;40.472;-3.878;2023-05-11T08:34:19;53042.00;;;-139.96;36.33
7906;BME280;13291;40.472;-3.878;2023-05-11T08:36:47;53048.00;;;-139.96;35.91
7906;BME280;13291;40.472;-3.878;2023-05-11T08:39:15;53038.00;;;-139.96;36.13
7906;BME280;13291;40.472;-3.878;2023-05-11T08:41:43;53034.00;;;-139.96;35.71
7906;BME280;13291;40.472;-3.878;2023-05-11T08:44:13;53024.00;;;-139.96;35.92
7906;BME280;13291;40.472;-3.878;2023-05-11T08:46:44;53060.00;;;-139.96;35.43
7906;BME280;13291;40.472;-3.878;2023-05-11T08:49:12;53009.97;;;-139.96;35.72
7906;BME280;13291;40.472;-3.878;2023-05-11T08:51:39;53020.00;;;-139.96;35.47
7906;BME280;13291;40.472;-3.878;2023-05-11T08:54:07;53032.00;;;-139.96;35.28
7906;BME280;13291;40.472;-3.878;2023-05-11T08:56:35;53030.00;;;-139.96;35.20
7906;BME280;13291;40.472;-3.878;2023-05-11T08:59:04;53034.00;;;-139.96;35.34
7906;BME280;13291;40.472;-3.878;2023-05-11T09:01:31;53070.00;;;-139.96;35.64
7906;BME280;13291;40.472;-3.878;2023-05-11T09:04:00;53020.00;;;-139.96;36.05
7906;BME280;13291;40.472;-3.878;2023-05-11T09:06:28;53044.00;;;-139.96;35.76
7906;BME280;13291;40.472;-3.878;2023-05-11T09:08:56;53009.97;;;-139.96;35.48
7906;BME280;13291;40.472;-3.878;2023-05-11T09:11:23;53026.00;;;-139.96;35.34
7906;BME280;13291;40.472;-3.878;2023-05-11T09:13:52;53054.00;;;-139.96;35.82
7906;BME280;13291;40.472;-3.878;2023-05-11T09:16:19;53034.00;;;-139.96;35.94
7906;BME280;13291;40.472;-3.878;2023-05-11T09:18:46;53024.00;;;-139.96;35.79
7906;BME280;13291;40.472;-3.878;2023-05-11T09:21:13;53018.00;;;-139.96;35.36
7906;BME280;13291;40.472;-3.878;2023-05-11T09:23:40;53014.00;;;-139.96;35.49
7906;BME280;13291;40.472;-3.878;2023-05-11T09:26:13;53038.00;;;-139.96;35.36
7906;BME280;13291;40.472;-3.878;2023-05-11T09:28:47;53012.00;;;-139.96;35.04
7906;BME280;13291;40.472;-3.878;2023-05-11T09:34:10;53012.00;;;-139.96;35.08
7906;BME280;13291;40.472;-3.878;2023-05-11T09:36:37;53016.00;;;-139.96;35.36
7906;BME280;13291;40.472;-3.878;2023-05-11T09:39:04;53062.00;;;-139.96;35.34
7906;BME280;13291;40.472;-3.878;2023-05-11T09:41:31;53046.00;;;-139.96;36.39
7906;BME280;13291;40.472;-3.878;2023-05-11T09:44:06;53024.00;;;-139.96;35.55
7906;BME280;13291;40.472;-3.878;2023-05-11T09:46:35;53034.00;;;-139.96;34.85
7906;BME280;13291;40.472;-3.878;2023-05-11T09:49:03;53001.97;;;-139.96;35.20
7906;BME280;13291;40.472;-3.878;2023-05-11T09:51:33;53042.00;;;-139.96;34.71
7906;BME280;13291;40.472;-3.878;2023-05-11T09:54:14;53054.00;;;-139.96;34.76
7906;BME280;13291;40.472;-3.878;2023-05-11T09:56:47;53064.00;;;-139.96;34.35
7906;BME280;13291;40.472;-3.878;2023-05-11T09:59:15;52989.97;;;-139.96;34.57
7906;BME280;13291;40.472;-3.878;2023-05-11T10:01:42;53020.00;;;-139.96;34.68
7906;BME280;13291;40.472;-3.878;2023-05-11T10:04:09;53052.00;;;-139.96;35.35
7906;BME280;13291;40.472;-3.878;2023-05-11T10:06:45;53034.00;;;-139.96;35.11
7906;BME280;13291;40.472;-3.878;2023-05-11T10:09:14;53020.00;;;-139.96;35.03
7906;BME280;13291;40.472;-3.878;2023-05-11T10:11:43;53034.00;;;-139.96;35.34
7906;BME280;13291;40.472;-3.878;2023-05-11T10:14:12;53038.00;;;-139.96;35.09
7906;BME280;13291;40.472;-3.878;2023-05-11T10:16:40;53014.00;;;-139.96;35.07
7906;BME280;13291;40.472;-3.878;2023-05-11T10:19:07;52983.97;;;-139.96;34.89
7906;BME280;13291;40.472;-3.878;2023-05-11T10:21:35;53014.00;;;-139.96;34.00
7906;BME280;13291;40.472;-3.878;2023-05-11T10:24:05;53028.00;;;-139.96;33.78
7906;BME280;13291;40.472;-3.878;2023-05-11T10:26:32;52989.97;;;-139.96;34.54
7906;BME280;13291;40.472;-3.878;2023-05-11T10:29:00;52991.97;;;-139.96;33.85
7906;BME280;13291;40.472;-3.878;2023-05-11T10:31:27;53001.97;;;-139.96;33.80
7906;BME280;13291;40.472;-3.878;2023-05-11T10:33:55;53030.00;;;-139.96;33.99
7906;BME280;13291;40.472;-3.878;2023-05-11T10:36:23;53007.97;;;-139.96;33.18
7906;BME280;13291;40.472;-3.878;2023-05-11T10:38:50;52997.97;;;-139.96;34.02
7906;BME280;13291;40.472;-3.878;2023-05-11T10:41:46;53022.00;;;-139.96;34.14
7906;BME280;13291;40.472;-3.878;2023-05-11T10:47:26;53014.00;;;-139.96;34.38
7906;BME280;13291;40.472;-3.878;2023-05-11T10:50:15;53022.00;;;-139.96;33.34
7906;BME280;13291;40.472;-3.878;2023-05-11T10:53:00;53003.97;;;-139.96;33.48
7906;BME280;13291;40.472;-3.878;2023-05-11T10:55:43;53001.97;;;-139.96;33.08
7906;BME280;13291;40.472;-3.878;2023-05-11T10:58:16;53012.00;;;-139.96;33.20
7906;BME280;13291;40.472;-3.878;2023-05-11T11:01:19;52989.97;;;-139.96;32.28
7906;BME280;13291;40.472;-3.878;2023-05-11T11:03:55;52979.97;;;-139.96;33.97
7906;BME280;13291;40.472;-3.878;2023-05-11T11:06:23;53022.00;;;-139.96;33.91
7906;BME280;13291;40.472;-3.878;2023-05-11T11:08:55;53005.97;;;-139.96;33.74
7906;BME280;13291;40.472;-3.878;2023-05-11T11:11:30;52973.97;;;-139.96;34.02
7906;BME280;13291;40.472;-3.878;2023-05-11T11:14:00;53007.97;;;-139.96;33.99
7906;BME280;13291;40.472;-3.878;2023-05-11T11:16:30;52989.97;;;-139.96;33.84
7906;BME280;13291;40.472;-3.878;2023-05-11T11:19:34;53009.97;;;-139.96;33.34
7906;BME280;13291;40.472;-3.878;2023-05-11T11:22:02;53003.97;;;-139.96;33.02
7906;BME280;13291;40.472;-3.878;2023-05-11T11:24:45;52985.97;;;-139.96;32.50
7906;BME280;13291;40.472;-3.878;2023-05-11T11:27:13;52979.97;;;-139.96;32.76
7906;BME280;13291;40.472;-3.878;2023-05-11T11:30:14;52985.97;;;-139.96;33.25
7906;BME280;13291;40.472;-3.878;2023-05-11T11:32:42;52977.97;;;-139.96;31.81
7906;BME280;13291;40.472;-3.878;2023-05-11T11:38:11;52985.97;;;-139.96;33.05
7906;BME280;13291;40.472;-3.878;2023-05-11T11:40:39;52957.97;;;-139.96;33.48
7906;BME280;13291;40.472;-3.878;2023-05-11T11:43:10;52955.97;;;-139.96;33.03
7906;BME280;13291;40.472;-3.878;2023-05-11T11:45:49;52997.97;;;-139.96;33.91
7906;BME280;13291;40.472;-3.878;2023-05-11T11:48:20;52971.97;;;-139.96;33.23
7906;BME280;13291;40.472;-3.878;2023-05-11T11:50:48;52967.97;;;-139.96;32.96
7906;BME280;13291;40.472;-3.878;2023-05-11T11:56:42;52979.97;;;-139.96;32.37
7906;BME280;13291;40.472;-3.878;2023-05-11T11:59:11;52963.97;;;-139.96;33.50
7906;BME280;13291;40.472;-3.878;2023-05-11T12:01:42;52967.97;;;-139.96;33.01
7906;BME280;13291;40.472;-3.878;2023-05-11T12:04:43;52967.97;;;-139.96;32.76
7906;BME280;13291;40.472;-3.878;2023-05-11T12:07:14;52959.97;;;-139.96;32.41
7906;BME280;13291;40.472;-3.878;2023-05-11T12:09:44;52941.97;;;-139.96;32.50
7906;BME280;13291;40.472;-3.878;2023-05-11T12:12:11;52963.97;;;-139.96;32.29
7906;BME280;13291;40.472;-3.878;2023-05-11T12:14:39;52977.97;;;-139.96;31.53
7906;BME280;13291;40.472;-3.878;2023-05-11T12:17:15;52999.97;;;-139.96;32.31
7906;BME280;13291;40.472;-3.878;2023-05-11T12:19:48;52985.97;;;-139.96;30.77
7906;BME280;13291;40.472;-3.878;2023-05-11T12:22:21;52939.97;;;-139.96;31.65
7906;BME280;13291;40.472;-3.878;2023-05-11T12:24:48;52949.97;;;-139.96;32.56
7906;BME280;13291;40.472;-3.878;2023-05-11T12:27:16;52957.97;;;-139.96;32.48
7906;BME280;13291;40.472;-3.878;2023-05-11T12:29:47;52957.97;;;-139.96;32.08
7906;BME280;13291;40.472;-3.878;2023-05-11T12:32:24;52937.97;;;-139.96;31.89
7906;BME280;13291;40.472;-3.878;2023-05-11T12:34:57;52933.97;;;-139.96;32.30
7906;BME280;13291;40.472;-3.878;2023-05-11T12:37:24;52953.97;;;-139.96;31.89
7906;BME280;13291;40.472;-3.878;2023-05-11T12:39:53;52947.97;;;-139.96;31.45
7906;BME280;13291;40.472;-3.878;2023-05-11T12:42:20;52935.97;;;-139.96;30.67
7906;BME280;13291;40.472;-3.878;2023-05-11T12:44:47;52969.97;;;-139.96;30.64
7906;BME280;13291;40.472;-3.878;2023-05-11T12:47:16;52977.97;;;-139.96;30.65
7906;BME280;13291;40.472;-3.878;2023-05-11T12:49:43;52915.97;;;-139.96;30.05
7906;BME280;13291;40.472;-3.878;2023-05-11T12:52:12;52969.97;;;-139.96;31.06
7906;BME280;13291;40.472;-3.878;2023-05-11T12:54:45;52969.97;;;-139.96;31.92
7906;BME280;13291;40.472;-3.878;2023-05-11T12:57:22;52957.97;;;-139.96;31.60
7906;BME280;13291;40.472;-3.878;2023-05-11T13:00:04;52959.97;;;-139.96;30.45
7906;BME280;13291;40.472;-3.878;2023-05-11T13:02:33;52941.97;;;-139.96;30.31
7906;BME280;13291;40.472;-3.878;2023-05-11T13:05:09;52955.97;;;-139.96;29.88